sensor_id;sensor_type;location;lat;lon;timestamp;temperature;humidity
21031;DHT22;61072;47.808;7.636;2022-11-14T07:03:41;6.20;99.90
21031;DHT22;61072;47.808;7.636;2022-11-14T07:06:10;6.20;99.90
21031;DHT22;61072;47.808;7.636;2022-11-14T07:08:37;6.20;99.90
21031;DHT22;61072;47.808;7.636;2022-11-14T07:11:09;6.30;99.90
21031;DHT22;61072;47.808;7.636;2022-11-14T07:13:37;6.30;99.90
21031;DHT22;61072;47.808;7.636;2022-11-14T07:16:04;6.30;99.90
21031;DHT22;61072;47.808;7.636;2022-11-14T07:18:32;6.40;99.90
21031;DHT22;61072;47.808;7.636;2022-11-14T07:21:05;6.40;99.90
21031;DHT22;61072;47.808;7.636;2022-11-14T07:23:33;6.40;99.90
21031;DHT22;61072;47.808;7.636;2022-11-14T07:26:05;6.40;99.90
21031;DHT22;61072;47.808;7.636;2022-11-14T07:28:36;6.50;99.90
21031;DHT22;61072;47.808;7.636;2022-11-14T07:31:04;6.50;99.90
21031;DHT22;61072;47.808;7.636;2022-11-14T07:33:31;6.50;99.90
21031;DHT22;61072;47.808;7.636;2022-11-14T07:35:58;6.60;99.90
21031;DHT22;61072;47.808;7.636;2022-11-14T07:38:25;6.60;99.90
21031;DHT22;61072;47.808;7.636;2022-11-14T07:40:59;6.60;99.90
21031;DHT22;61072;47.808;7.636;2022-11-14T07:43:26;6.70;99.90
21031;DHT22;61072;47.808;7.636;2022-11-14T07:45:57;6.70;99.90
21031;DHT22;61072;47.808;7.636;2022-11-14T07:48:24;6.70;99.90
21031;DHT22;61072;47.808;7.636;2022-11-14T07:50:50;6.70;99.90
21031;DHT22;61072;47.808;7.636;2022-11-14T07:53:18;6.80;99.90
21031;DHT22;61072;47.808;7.636;2022-11-14T07:55:44;6.80;99.90
21031;DHT22;61072;47.808;7.636;2022-11-14T07:58:11;6.80;99.90
21031;DHT22;61072;47.808;7.636;2022-11-14T08:00:39;6.80;99.90
21031;DHT22;61072;47.808;7.636;2022-11-14T08:03:06;6.90;99.90
21031;DHT22;61072;47.808;7.636;2022-11-14T08:05:33;6.80;99.90
21031;DHT22;61072;47.808;7.636;2022-11-14T08:08:00;6.90;99.90
21031;DHT22;61072;47.808;7.636;2022-11-14T08:10:27;7.00;99.90
21031;DHT22;61072;47.808;7.636;2022-11-14T08:13:01;7.00;99.90
21031;DHT22;61072;47.808;7.636;2022-11-14T08:15:48;7.00;99.90
21031;DHT22;61072;47.808;7.636;2022-11-14T08:18:15;7.10;99.90
21031;DHT22;61072;47.808;7.636;2022-11-14T08:20:42;7.20;99.90
21031;DHT22;61072;47.808;7.636;2022-11-14T08:23:09;7.20;99.90
21031;DHT22;61072;47.808;7.636;2022-11-14T08:25:36;7.30;99.90
21031;DHT22;61072;47.808;7.636;2022-11-14T08:28:03;7.40;99.90
21031;DHT22;61072;47.808;7.636;2022-11-14T08:30:30;7.40;99.90
21031;DHT22;61072;47.808;7.636;2022-11-14T08:33:00;7.50;99.90
21031;DHT22;61072;47.808;7.636;2022-11-14T08:35:28;7.60;99.90
21031;DHT22;61072;47.808;7.636;2022-11-14T08:37:55;7.70;99.90
21031;DHT22;61072;47.808;7.636;2022-11-14T08:40:21;7.80;99.90
21031;DHT22;61072;47.808;7.636;2022-11-14T08:42:48;7.80;99.90
21031;DHT22;61072;47.808;7.636;2022-11-14T08:45:15;7.90;99.90
21031;DHT22;61072;47.808;7.636;2022-11-14T08:47:41;8.00;99.90
21031;DHT22;61072;47.808;7.636;2022-11-14T08:50:08;8.10;99.90
21031;DHT22;61072;47.808;7.636;2022-11-14T08:52:35;8.20;99.90
21031;DHT22;61072;47.808;7.636;2022-11-14T08:55:02;8.30;99.90
21031;DHT22;61072;47.808;7.636;2022-11-14T08:57:29;8.30;99.90
21031;DHT22;61072;47.808;7.636;2022-11-14T08:59:55;8.40;99.90
21031;DHT22;61072;47.808;7.636;2022-11-14T09:02:22;8.40;99.90
21031;DHT22;61072;47.808;7.636;2022-11-14T09:04:48;8.50;99.90
21031;DHT22;61072;47.808;7.636;2022-11-14T09:07:15;8.60;99.90
21031;DHT22;61072;47.808;7.636;2022-11-14T09:09:42;8.60;99.90
21031;DHT22;61072;47.808;7.636;2022-11-14T09:12:09;8.70;99.90
21031;DHT22;61072;47.808;7.636;2022-11-14T09:14:36;8.70;99.90
21031;DHT22;61072;47.808;7.636;2022-11-14T09:17:02;8.80;99.90
21031;DHT22;61072;47.808;7.636;2022-11-14T09:19:31;8.90;99.90
21031;DHT22;61072;47.808;7.636;2022-11-14T09:21:58;8.90;99.90
21031;DHT22;61072;47.808;7.636;2022-11-14T09:24:25;9.00;99.90
21031;DHT22;61072;47.808;7.636;2022-11-14T09:26:51;9.10;99.90
21031;DHT22;61072;47.808;7.636;2022-11-14T09:29:22;9.20;99.90
21031;DHT22;61072;47.808;7.636;2022-11-14T09:31:50;9.30;99.90
21031;DHT22;61072;47.808;7.636;2022-11-14T09:34:17;9.40;99.90
21031;DHT22;61072;47.808;7.636;2022-11-14T09:36:44;9.40;99.90
21031;DHT22;61072;47.808;7.636;2022-11-14T09:39:12;9.40;99.90
21031;DHT22;61072;47.808;7.636;2022-11-14T09:42:07;9.40;99.90
21031;DHT22;61072;47.808;7.636;2022-11-14T09:47:23;9.80;99.90
21031;DHT22;61072;47.808;7.636;2022-11-14T09:50:04;9.90;99.90
21031;DHT22;61072;47.808;7.636;2022-11-14T09:55:16;10.30;99.90
21031;DHT22;61072;47.808;7.636;2022-11-14T09:57:44;10.50;99.90
21031;DHT22;61072;47.808;7.636;2022-11-14T10:00:16;10.50;99.90
21031;DHT22;61072;47.808;7.636;2022-11-14T10:02:47;10.70;99.90
21031;DHT22;61072;47.808;7.636;2022-11-14T10:05:44;10.80;99.90
21031;DHT22;61072;47.808;7.636;2022-11-14T10:11:04;11.00;99.90
21031;DHT22;61072;47.808;7.636;2022-11-14T10:24:37;11.20;99.90
21031;DHT22;61072;47.808;7.636;2022-11-14T10:27:37;11.30;99.90
21031;DHT22;61072;47.808;7.636;2022-11-14T10:30:15;11.30;99.90
21031;DHT22;61072;47.808;7.636;2022-11-14T10:35:38;11.30;99.90
21031;DHT22;61072;47.808;7.636;2022-11-14T10:40:43;11.30;99.90
21031;DHT22;61072;47.808;7.636;2022-11-14T10:43:31;11.30;99.90
21031;DHT22;61072;47.808;7.636;2022-11-14T10:46:04;11.30;99.90
21031;DHT22;61072;47.808;7.636;2022-11-14T10:48:39;11.30;99.90
21031;DHT22;61072;47.808;7.636;2022-11-14T10:51:21;11.40;99.90
21031;DHT22;61072;47.808;7.636;2022-11-14T10:56:46;11.60;99.90
21031;DHT22;61072;47.808;7.636;2022-11-14T10:59:13;11.60;99.90
21031;DHT22;61072;47.808;7.636;2022-11-14T11:01:44;11.70;99.90
21031;DHT22;61072;47.808;7.636;2022-11-14T11:04:31;11.70;99.90
21031;DHT22;61072;47.808;7.636;2022-11-14T11:09:38;11.90;99.90
21031;DHT22;61072;47.808;7.636;2022-11-14T11:12:42;12.00;99.90
21031;DHT22;61072;47.808;7.636;2022-11-14T11:15:31;12.00;99.90
21031;DHT22;61072;47.808;7.636;2022-11-14T11:18:22;12.10;99.90
21031;DHT22;61072;47.808;7.636;2022-11-14T11:21:13;12.10;99.90
21031;DHT22;61072;47.808;7.636;2022-11-14T11:29:08;12.20;99.90
21031;DHT22;61072;47.808;7.636;2022-11-14T11:31:55;12.30;99.90
21031;DHT22;61072;47.808;7.636;2022-11-14T11:34:25;12.20;99.90
21031;DHT22;61072;47.808;7.636;2022-11-14T11:40:02;12.20;99.90
21031;DHT22;61072;47.808;7.636;2022-11-14T11:42:47;12.20;99.90
21031;DHT22;61072;47.808;7.636;2022-11-14T11:45:36;12.20;99.90
21031;DHT22;61072;47.808;7.636;2022-11-14T11:50:35;12.40;99.90
21031;DHT22;61072;47.808;7.636;2022-11-14T11:53:22;12.30;99.90
21031;DHT22;61072;47.808;7.636;2022-11-14T11:55:53;12.40;99.90
21031;DHT22;61072;47.808;7.636;2022-11-14T11:58:25;12.40;99.90
21031;DHT22;61072;47.808;7.636;2022-11-14T12:00:52;12.50;99.90
21031;DHT22;61072;47.808;7.636;2022-11-14T12:03:24;12.60;99.90
21031;DHT22;61072;47.808;7.636;2022-11-14T12:06:12;12.60;99.90
21031;DHT22;61072;47.808;7.636;2022-11-14T12:09:13;12.50;99.90
21031;DHT22;61072;47.808;7.636;2022-11-14T12:11:45;12.60;99.90
21031;DHT22;61072;47.808;7.636;2022-11-14T12:14:53;12.60;99.90
21031;DHT22;61072;47.808;7.636;2022-11-14T12:18:05;12.60;99.90
21031;DHT22;61072;47.808;7.636;2022-11-14T12:26:23;12.70;99.90
21031;DHT22;61072;47.808;7.636;2022-11-14T12:31:34;12.90;99.90
21031;DHT22;61072;47.808;7.636;2022-11-14T12:34:10;13.10;99.90
21031;DHT22;61072;47.808;7.636;2022-11-14T12:36:43;13.20;99.90
21031;DHT22;61072;47.808;7.636;2022-11-14T12:39:23;13.30;99.90
21031;DHT22;61072;47.808;7.636;2022-11-14T12:42:00;13.30;99.90
21031;DHT22;61072;47.808;7.636;2022-11-14T12:49:36;13.60;99.90
21031;DHT22;61072;47.808;7.636;2022-11-14T12:52:06;13.50;99.90
21031;DHT22;61072;47.808;7.636;2022-11-14T12:54:50;13.60;99.90
21031;DHT22;61072;47.808;7.636;2022-11-14T12:57:24;13.60;99.90
21031;DHT22;61072;47.808;7.636;2022-11-14T13:00:21;13.70;99.90
21031;DHT22;61072;47.808;7.636;2022-11-14T13:06:11;13.70;99.90
21031;DHT22;61072;47.808;7.636;2022-11-14T13:11:46;13.70;99.90
21031;DHT22;61072;47.808;7.636;2022-11-14T13:14:48;13.70;99.90
21031;DHT22;61072;47.808;7.636;2022-11-14T13:17:34;13.70;99.90
21031;DHT22;61072;47.808;7.636;2022-11-14T13:20:28;13.60;99.90
21031;DHT22;61072;47.808;7.636;2022-11-14T13:28:47;13.40;99.90
21031;DHT22;61072;47.808;7.636;2022-11-14T13:33:44;13.20;99.90
21031;DHT22;61072;47.808;7.636;2022-11-14T13:36:43;13.10;99.90
21031;DHT22;61072;47.808;7.636;2022-11-14T13:39:18;13.10;99.90
21031;DHT22;61072;47.808;7.636;2022-11-14T13:49:55;12.80;99.90
21031;DHT22;61072;47.808;7.636;2022-11-14T13:52:26;12.80;99.90
21031;DHT22;61072;47.808;7.636;2022-11-14T13:54:53;12.70;99.90
21031;DHT22;61072;47.808;7.636;2022-11-14T14:00:12;12.60;99.90
21031;DHT22;61072;47.808;7.636;2022-11-14T14:14:02;12.80;99.90
21031;DHT22;61072;47.808;7.636;2022-11-14T14:16:59;12.80;99.90
21031;DHT22;61072;47.808;7.636;2022-11-14T14:22:15;12.80;99.90
21031;DHT22;61072;47.808;7.636;2022-11-14T14:30:18;12.90;99.90
21031;DHT22;61072;47.808;7.636;2022-11-14T14:33:14;12.90;99.90
21031;DHT22;61072;47.808;7.636;2022-11-14T14:35:52;13.00;99.90
21031;DHT22;61072;47.808;7.636;2022-11-14T14:38:24;13.10;99.90
21031;DHT22;61072;47.808;7.636;2022-11-14T14:40:53;13.10;99.90
21031;DHT22;61072;47.808;7.636;2022-11-14T14:43:42;13.00;99.90
21031;DHT22;61072;47.808;7.636;2022-11-14T14:46:09;13.00;99.90
21031;DHT22;61072;47.808;7.636;2022-11-14T14:48:39;13.10;99.90
21031;DHT22;61072;47.808;7.636;2022-11-14T14:51:12;13.10;99.90
21031;DHT22;61072;47.808;7.636;2022-11-14T14:53:50;13.10;99.90
21031;DHT22;61072;47.808;7.636;2022-11-14T14:56:22;13.10;99.90
21031;DHT22;61072;47.808;7.636;2022-11-14T14:58:52;13.20;99.90
21031;DHT22;61072;47.808;7.636;2022-11-14T15:01:24;13.10;99.90
21031;DHT22;61072;47.808;7.636;2022-11-14T15:04:04;13.10;99.90
21031;DHT22;61072;47.808;7.636;2022-11-14T15:06:34;13.20;99.90
21031;DHT22;61072;47.808;7.636;2022-11-14T15:09:12;13.20;99.90
21031;DHT22;61072;47.808;7.636;2022-11-14T15:11:43;13.20;99.90
21031;DHT22;61072;47.808;7.636;2022-11-14T15:14:14;13.20;99.90
21031;DHT22;61072;47.808;7.636;2022-11-14T15:16:43;13.10;99.90
21031;DHT22;61072;47.808;7.636;2022-11-14T15:19:13;13.10;99.90
21031;DHT22;61072;47.808;7.636;2022-11-14T15:21:41;13.10;99.90
21031;DHT22;61072;47.808;7.636;2022-11-14T15:24:17;13.10;99.90
21031;DHT22;61072;47.808;7.636;2022-11-14T15:26:46;13.20;99.90
21031;DHT22;61072;47.808;7.636;2022-11-14T15:29:19;13.10;99.90
21031;DHT22;61072;47.808;7.636;2022-11-14T15:31:56;13.10;99.90
21031;DHT22;61072;47.808;7.636;2022-11-14T15:34:33;13.10;99.90
21031;DHT22;61072;47.808;7.636;2022-11-14T15:39:36;13.20;99.90
21031;DHT22;61072;47.808;7.636;2022-11-14T15:44:49;13.20;99.90
21031;DHT22;61072;47.808;7.636;2022-11-14T15:50:03;13.20;99.90
21031;DHT22;61072;47.808;7.636;2022-11-14T15:52:34;13.20;99.90
21031;DHT22;61072;47.808;7.636;2022-11-14T15:55:02;13.30;99.90
21031;DHT22;61072;47.808;7.636;2022-11-14T15:57:31;13.30;99.90
21031;DHT22;61072;47.808;7.636;2022-11-14T15:59:57;13.40;99.90
21031;DHT22;61072;47.808;7.636;2022-11-14T16:02:28;13.30;99.90
21031;DHT22;61072;47.808;7.636;2022-11-14T16:04:55;13.30;99.90
21031;DHT22;61072;47.808;7.636;2022-11-14T16:07:23;13.30;99.90
21031;DHT22;61072;47.808;7.636;2022-11-14T16:09:50;13.30;99.90
21031;DHT22;61072;47.808;7.636;2022-11-14T16:12:16;13.30;99.90
21031;DHT22;61072;47.808;7.636;2022-11-14T16:14:43;13.30;99.90
21031;DHT22;61072;47.808;7.636;2022-11-14T16:17:15;13.30;99.90
21031;DHT22;61072;47.808;7.636;2022-11-14T16:19:43;13.20;99.90
21031;DHT22;61072;47.808;7.636;2022-11-14T16:22:15;13.20;99.90
21031;DHT22;61072;47.808;7.636;2022-11-14T16:24:43;13.20;99.90
21031;DHT22;61072;47.808;7.636;2022-11-14T16:27:09;13.30;99.90
21031;DHT22;61072;47.808;7.636;2022-11-14T16:29:36;13.30;99.90
21031;DHT22;61072;47.808;7.636;2022-11-14T16:32:03;13.40;99.90
21031;DHT22;61072;47.808;7.636;2022-11-14T16:34:30;13.40;99.90
21031;DHT22;61072;47.808;7.636;2022-11-14T16:36:59;13.40;99.90
21031;DHT22;61072;47.808;7.636;2022-11-14T16:39:26;13.40;99.90
21031;DHT22;61072;47.808;7.636;2022-11-14T16:41:59;13.50;99.90
21031;DHT22;61072;47.808;7.636;2022-11-14T16:44:27;13.50;99.90
21031;DHT22;61072;47.808;7.636;2022-11-14T16:46:53;13.60;99.90
21031;DHT22;61072;47.808;7.636;2022-11-14T16:49:20;13.60;99.90
21031;DHT22;61072;47.808;7.636;2022-11-14T16:51:48;13.60;99.90
21031;DHT22;61072;47.808;7.636;2022-11-14T16:54:17;13.60;99.90
21031;DHT22;61072;47.808;7.636;2022-11-14T16:56:45;13.70;99.90
21031;DHT22;61072;47.808;7.636;2022-11-14T16:59:12;13.70;99.90
21031;DHT22;61072;47.808;7.636;2022-11-14T17:01:39;13.70;99.90
21031;DHT22;61072;47.808;7.636;2022-11-14T17:04:06;13.70;99.90
21031;DHT22;61072;47.808;7.636;2022-11-14T17:06:32;13.70;99.90
21031;DHT22;61072;47.808;7.636;2022-11-14T17:08:59;13.70;99.90
21031;DHT22;61072;47.808;7.636;2022-11-14T17:11:27;13.70;99.90
21031;DHT22;61072;47.808;7.636;2022-11-14T17:13:54;13.70;99.90
21031;DHT22;61072;47.808;7.636;2022-11-14T17:16:21;13.70;99.90
21031;DHT22;61072;47.808;7.636;2022-11-14T17:18:52;13.70;99.90
21031;DHT22;61072;47.808;7.636;2022-11-14T17:21:20;13.70;99.90
21031;DHT22;61072;47.808;7.636;2022-11-14T17:23:55;13.70;99.90
21031;DHT22;61072;47.808;7.636;2022-11-14T17:26:22;13.70;99.90
21031;DHT22;61072;47.808;7.636;2022-11-14T17:28:49;13.60;99.90
21031;DHT22;61072;47.808;7.636;2022-11-14T17:31:16;13.70;99.90
21031;DHT22;61072;47.808;7.636;2022-11-14T17:33:48;13.70;99.90
21031;DHT22;61072;47.808;7.636;2022-11-14T17:36:15;13.70;99.90
21031;DHT22;61072;47.808;7.636;2022-11-14T17:38:41;13.60;99.90
21031;DHT22;61072;47.808;7.636;2022-11-14T17:41:08;13.60;99.90
21031;DHT22;61072;47.808;7.636;2022-11-14T17:43:35;13.50;99.90
21031;DHT22;61072;47.808;7.636;2022-11-14T17:46:05;13.60;99.90
21031;DHT22;61072;47.808;7.636;2022-11-14T17:48:41;13.60;99.90
21031;DHT22;61072;47.808;7.636;2022-11-14T17:51:10;13.60;99.90
21031;DHT22;61072;47.808;7.636;2022-11-14T17:53:38;13.60;99.90
21031;DHT22;61072;47.808;7.636;2022-11-14T17:56:05;13.60;99.90
21031;DHT22;61072;47.808;7.636;2022-11-14T17:58:33;13.60;99.90
21031;DHT22;61072;47.808;7.636;2022-11-14T18:01:00;13.60;99.90
21031;DHT22;61072;47.808;7.636;2022-11-14T18:03:27;13.60;99.90
21031;DHT22;61072;47.808;7.636;2022-11-14T18:06:04;13.60;99.90
21031;DHT22;61072;47.808;7.636;2022-11-14T18:08:32;13.60;99.90
21031;DHT22;61072;47.808;7.636;2022-11-14T18:11:00;13.60;99.90
21031;DHT22;61072;47.808;7.636;2022-11-14T18:13:27;13.50;99.90
21031;DHT22;61072;47.808;7.636;2022-11-14T18:15:58;13.50;99.90
21031;DHT22;61072;47.808;7.636;2022-11-14T18:18:25;13.50;99.90
21031;DHT22;61072;47.808;7.636;2022-11-14T18:20:52;13.40;99.90
21031;DHT22;61072;47.808;7.636;2022-11-14T18:23:18;13.40;99.90
21031;DHT22;61072;47.808;7.636;2022-11-14T18:25:45;13.40;99.90
21031;DHT22;61072;47.808;7.636;2022-11-14T18:28:12;13.40;99.90
21031;DHT22;61072;47.808;7.636;2022-11-14T18:30:38;13.30;99.90
21031;DHT22;61072;47.808;7.636;2022-11-14T18:33:08;13.30;99.90
21031;DHT22;61072;47.808;7.636;2022-11-14T18:35:34;13.30;99.90
21031;DHT22;61072;47.808;7.636;2022-11-14T18:38:01;13.30;99.90
21031;DHT22;61072;47.808;7.636;2022-11-14T18:40:28;13.30;99.90
21031;DHT22;61072;47.808;7.636;2022-11-14T18:42:54;13.30;99.90
21031;DHT22;61072;47.808;7.636;2022-11-14T18:45:21;13.30;99.90
21031;DHT22;61072;47.808;7.636;2022-11-14T18:47:48;13.30;99.90
21031;DHT22;61072;47.808;7.636;2022-11-14T18:50:15;13.40;99.90
21031;DHT22;61072;47.808;7.636;2022-11-14T18:52:41;13.40;99.90
21031;DHT22;61072;47.808;7.636;2022-11-14T18:55:08;13.30;99.90
21031;DHT22;61072;47.808;7.636;2022-11-14T18:57:35;13.30;99.90
21031;DHT22;61072;47.808;7.636;2022-11-14T19:00:03;13.20;99.90
21031;DHT22;61072;47.808;7.636;2022-11-14T19:02:30;13.20;99.90
21031;DHT22;61072;47.808;7.636;2022-11-14T19:04:57;13.20;99.90
21031;DHT22;61072;47.808;7.636;2022-11-14T19:07:24;13.20;99.90
21031;DHT22;61072;47.808;7.636;2022-11-14T19:09:51;13.10;99.90
21031;DHT22;61072;47.808;7.636;2022-11-14T19:12:18;13.10;99.90
21031;DHT22;61072;47.808;7.636;2022-11-14T19:14:47;13.10;99.90
21031;DHT22;61072;47.808;7.636;2022-11-14T19:17:17;13.00;99.90
21031;DHT22;61072;47.808;7.636;2022-11-14T19:19:48;13.00;99.90
21031;DHT22;61072;47.808;7.636;2022-11-14T19:22:15;12.90;99.90
21031;DHT22;61072;47.808;7.636;2022-11-14T19:24:42;12.90;99.90
21031;DHT22;61072;47.808;7.636;2022-11-14T19:27:12;12.80;99.90
21031;DHT22;61072;47.808;7.636;2022-11-14T19:29:39;12.80;99.90
21031;DHT22;61072;47.808;7.636;2022-11-14T19:32:06;12.80;99.90
21031;DHT22;61072;47.808;7.636;2022-11-14T19:34:33;12.70;99.90
21031;DHT22;61072;47.808;7.636;2022-11-14T19:37:00;12.70;99.90
21031;DHT22;61072;47.808;7.636;2022-11-14T19:39:27;12.60;99.90
21031;DHT22;61072;47.808;7.636;2022-11-14T19:41:54;12.60;99.90
21031;DHT22;61072;47.808;7.636;2022-11-14T19:44:21;12.50;99.90
21031;DHT22;61072;47.808;7.636;2022-11-14T19:46:47;12.50;99.90
21031;DHT22;61072;47.808;7.636;2022-11-14T19:49:14;12.50;99.90
21031;DHT22;61072;47.808;7.636;2022-11-14T19:51:41;12.50;99.90
